Strona główna
METAR-TAF:

METAR-TAF

Lotnisko :

Nowy Jork, Nowy Jork, Stany Zjednoczone

Szerokość geograficzna: 40-42-04N, Długość geograficzna: 074-00-32W, wysokość: 2 m

Aktualna obserwacja pogody

Raport powstał 31 minut temu, godzina 02:26 UTC
Wiatr 5 kt z kierunków zmiennych w porywach dochodzący do 15 kt
Temperatura 11°C
Wilgotność 71%
Ciśnienie 1011 hPa
Widzialność: 16.1 km
Przerywane chmury na wysokości 2700 ft
Przerywane chmury na wysokości 7500 ft
Zachmurzenie całkowite na wysokości 9000 ft

METAR: KJRB 040226Z AUTO VRB05G15KT 10SM BKN027 BKN075 OVC090 11/06 A2985 RMK AO2

czas: 22:57 (02:57 UTC)


TAF: brakujący

Obserwacja i prognoza pogody dla ponad 4000 lotnisk (raport METAR i TAF).

Dostępne stacje oznaczono żółtymi i czerwonymi punktami na mapie.

Najedź kursorem aby zobaczyć nazwę stacji.

Kliknij aby zobaczyć obserwacje i prognozy pogody.

Aby zmienić mapę: kliknij na zielony przycisk z czarnym krzyżykiem, aby powiększyć; na zielony przycisk z myślnikiem, aby pomniejszyć; na zielone strzałki, aby przejść do map sąsiednich.


METAR-TAF: